Time;durP1;ratioP1;P1;durP2;ratioP2;P2;SDS_P1;SDS_P2;PMS_P1;PMS_P2;Temp;Humidity;BMP_temperature;BMP_pressure;BME280_temperature;BME280_humidity;BME280_pressure;Samples;Min_cycle;Max_cycle;Signal;HPM_P1;HPM_P2
2023/10/26 00:00:33;;;;;;;13.10;2.47;;;;;;;;;;5062670;28;20433;-88
2023/10/26 00:02:59;;;;;;;7.47;2.35;;;;;;;;;;5049012;28;20055;-89
2023/10/26 00:05:25;;;;;;;8.15;2.35;;;;;;;;;;5066366;28;20079;-88
2023/10/26 00:07:51;;;;;;;12.52;2.83;;;;;;;;;;5067974;28;20041;-87
2023/10/26 00:10:16;;;;;;;9.50;2.60;;;;;;;;;;5066646;28;20029;-88
2023/10/26 00:12:41;;;;;;;9.15;2.45;;;;;;;;;;5053281;28;20099;-88
2023/10/26 00:15:07;;;;;;;9.93;3.05;;;;;;;;;;5060434;28;20028;-88
2023/10/26 00:17:32;;;;;;;18.90;5.75;;;;;;;;;;5070469;28;20021;-89
2023/10/26 00:19:57;;;;;;;78.88;22.55;;;;;;;;;;5073190;28;20604;-88
2023/10/26 00:22:24;;;;;;;30.63;9.52;;;;;;;;;;5070441;28;20571;-88
2023/10/26 00:24:50;;;;;;;29.38;8.45;;;;;;;;;;5072299;28;20496;-87
2023/10/26 00:27:15;;;;;;;27.05;7.60;;;;;;;;;;5070525;28;20111;-89
2023/10/26 00:29:41;;;;;;;17.42;5.63;;;;;;;;;;5076733;28;20096;-88
2023/10/26 00:32:07;;;;;;;20.63;5.65;;;;;;;;;;5067854;28;20052;-88
2023/10/26 00:34:33;;;;;;;18.67;4.72;;;;;;;;;;5055278;28;20498;-89
2023/10/26 00:36:58;;;;;;;18.00;5.97;;;;;;;;;;5070380;28;20037;-88
2023/10/26 00:39:23;;;;;;;16.83;4.65;;;;;;;;;;5075994;28;20147;-87
2023/10/26 00:41:52;;;;;;;15.02;5.20;;;;;;;;;;5073077;28;20051;-89
2023/10/26 00:44:18;;;;;;;20.35;7.03;;;;;;;;;;5054639;28;20455;-88
2023/10/26 00:46:44;;;;;;;18.27;6.57;;;;;;;;;;5066350;28;20052;-87
2023/10/26 00:49:12;;;;;;;20.13;7.63;;;;;;;;;;5078807;28;20016;-88
2023/10/26 00:51:38;;;;;;;16.70;7.37;;;;;;;;;;5080452;28;20067;-87
2023/10/26 00:54:04;;;;;;;19.15;8.63;;;;;;;;;;5079216;28;20791;-87
2023/10/26 00:56:30;;;;;;;19.08;7.10;;;;;;;;;;5074559;28;20021;-87
2023/10/26 00:58:56;;;;;;;18.23;6.03;;;;;;;;;;5059123;28;20021;-87
2023/10/26 01:01:22;;;;;;;16.13;5.90;;;;;;;;;;5056912;28;20017;-86
2023/10/26 01:03:49;;;;;;;18.88;5.82;;;;;;;;;;5076766;28;20024;-87
2023/10/26 01:06:14;;;;;;;17.73;5.40;;;;;;;;;;5076098;28;20572;-89
2023/10/26 01:08:39;;;;;;;16.20;5.20;;;;;;;;;;5072073;28;20029;-87
2023/10/26 01:11:05;;;;;;;13.45;4.38;;;;;;;;;;5054215;28;20405;-88
2023/10/26 01:13:31;;;;;;;17.75;4.72;;;;;;;;;;5068859;28;20021;-87
2023/10/26 01:15:57;;;;;;;15.95;4.95;;;;;;;;;;5075477;28;20052;-87
2023/10/26 01:18:22;;;;;;;15.35;4.25;;;;;;;;;;5070239;28;20036;-87
2023/10/26 01:20:47;;;;;;;13.52;4.13;;;;;;;;;;5071703;28;20016;-89
2023/10/26 01:23:13;;;;;;;11.90;4.10;;;;;;;;;;5073096;28;20021;-87
2023/10/26 01:25:39;;;;;;;9.82;3.80;;;;;;;;;;5052986;28;20486;-89
2023/10/26 01:28:06;;;;;;;13.55;4.15;;;;;;;;;;5058388;28;20088;-88
2023/10/26 01:30:32;;;;;;;15.80;4.18;;;;;;;;;;5076631;28;20482;-87
2023/10/26 01:32:58;;;;;;;17.05;4.45;;;;;;;;;;5078154;28;20040;-87
2023/10/26 01:35:23;;;;;;;19.27;5.13;;;;;;;;;;5075290;28;20104;-87
2023/10/26 01:37:49;;;;;;;16.85;5.18;;;;;;;;;;5077315;28;20116;-89
2023/10/26 01:40:14;;;;;;;18.90;5.43;;;;;;;;;;5071361;28;20055;-87
2023/10/26 01:42:39;;;;;;;18.75;6.63;;;;;;;;;;5088102;28;20031;-88
2023/10/26 01:45:05;;;;;;;18.08;5.85;;;;;;;;;;5078950;28;20027;-88
2023/10/26 01:47:30;;;;;;;49.42;15.00;;;;;;;;;;5076908;28;20020;-88
2023/10/26 01:49:56;;;;;;;36.85;12.10;;;;;;;;;;5062054;28;20072;-88
2023/10/26 01:52:22;;;;;;;25.42;8.63;;;;;;;;;;5079782;28;20017;-87
2023/10/26 01:54:49;;;;;;;22.98;6.70;;;;;;;;;;5071630;28;20044;-89
2023/10/26 01:57:14;;;;;;;19.33;5.63;;;;;;;;;;5079217;28;20074;-87
2023/10/26 01:59:40;;;;;;;16.63;5.30;;;;;;;;;;5078203;28;20417;-86
2023/10/26 02:02:05;;;;;;;18.08;4.90;;;;;;;;;;5081873;28;20082;-88
2023/10/26 02:04:31;;;;;;;16.83;4.72;;;;;;;;;;5080735;28;20075;-87
2023/10/26 02:06:56;;;;;;;14.55;4.82;;;;;;;;;;5080805;28;20048;-87
2023/10/26 02:09:22;;;;;;;16.80;5.30;;;;;;;;;;5084400;28;20024;-86
2023/10/26 02:11:47;;;;;;;18.02;5.80;;;;;;;;;;5081831;28;20085;-87
2023/10/26 02:14:13;;;;;;;14.75;5.03;;;;;;;;;;5083856;28;20394;-87
2023/10/26 02:16:38;;;;;;;19.00;5.18;;;;;;;;;;5080394;28;20032;-88
2023/10/26 02:19:04;;;;;;;17.45;5.43;;;;;;;;;;5062211;28;20029;-88
2023/10/26 02:21:29;;;;;;;21.58;5.68;;;;;;;;;;5076376;28;20020;-87
2023/10/26 02:23:54;;;;;;;18.48;5.03;;;;;;;;;;5077592;28;20100;-87
2023/10/26 02:26:20;;;;;;;22.05;5.05;;;;;;;;;;5058871;28;20312;-87
2023/10/26 02:28:45;;;;;;;92.68;27.60;;;;;;;;;;5057492;28;20017;-88
2023/10/26 02:31:10;;;;;;;158.40;47.75;;;;;;;;;;5063737;28;20036;-88
2023/10/26 02:33:36;;;;;;;165.85;48.25;;;;;;;;;;5082866;28;20066;-88
2023/10/26 02:36:01;;;;;;;153.48;47.35;;;;;;;;;;5084303;28;20024;-87
2023/10/26 02:38:27;;;;;;;153.52;49.83;;;;;;;;;;5084126;28;20267;-87
2023/10/26 02:40:53;;;;;;;88.43;32.47;;;;;;;;;;5086069;28;20044;-87
2023/10/26 02:43:19;;;;;;;14.10;4.30;;;;;;;;;;5084393;28;20027;-86
2023/10/26 02:45:44;;;;;;;51.33;17.83;;;;;;;;;;5084206;28;20423;-87
2023/10/26 02:48:10;;;;;;;26.30;8.77;;;;;;;;;;5083957;28;20088;-87
2023/10/26 02:50:36;;;;;;;23.58;5.82;;;;;;;;;;5082484;28;20021;-87
2023/10/26 02:53:01;;;;;;;31.17;10.57;;;;;;;;;;5066756;28;20092;-86
2023/10/26 02:55:26;;;;;;;51.05;17.20;;;;;;;;;;5083703;28;20313;-87
2023/10/26 02:57:52;;;;;;;72.25;27.67;;;;;;;;;;5086342;28;20005;-85
2023/10/26 03:00:17;;;;;;;80.60;29.70;;;;;;;;;;5084179;28;20017;-87
2023/10/26 03:02:43;;;;;;;72.22;28.58;;;;;;;;;;5084075;28;20021;-86
2023/10/26 03:05:08;;;;;;;67.82;26.95;;;;;;;;;;5082565;28;20513;-87
2023/10/26 03:07:34;;;;;;;68.85;25.95;;;;;;;;;;5083036;28;20052;-87
2023/10/26 03:09:59;;;;;;;76.63;28.80;;;;;;;;;;5081847;28;20024;-86
2023/10/26 03:12:25;;;;;;;62.42;21.23;;;;;;;;;;5080540;28;20126;-87
2023/10/26 03:14:50;;;;;;;34.40;11.40;;;;;;;;;;5077760;28;20027;-86
2023/10/26 03:17:15;;;;;;;58.35;19.60;;;;;;;;;;5079150;28;20024;-86
2023/10/26 03:19:42;;;;;;;61.65;22.15;;;;;;;;;;5076377;28;20029;-85
2023/10/26 03:22:07;;;;;;;53.95;20.95;;;;;;;;;;5061487;28;20068;-87
2023/10/26 03:24:35;;;;;;;32.55;11.82;;;;;;;;;;5060510;28;20035;-87
2023/10/26 03:27:00;;;;;;;35.50;10.95;;;;;;;;;;5057012;28;20491;-86
2023/10/26 03:29:26;;;;;;;25.95;8.77;;;;;;;;;;5065730;28;20125;-88
2023/10/26 03:31:52;;;;;;;28.77;11.23;;;;;;;;;;5077628;28;20024;-86
2023/10/26 03:34:17;;;;;;;23.00;8.38;;;;;;;;;;5078334;28;20035;-87
2023/10/26 03:36:43;;;;;;;24.92;8.45;;;;;;;;;;5081113;28;20021;-86
2023/10/26 03:39:08;;;;;;;23.73;7.53;;;;;;;;;;5080702;28;20116;-86
2023/10/26 03:41:34;;;;;;;22.35;7.60;;;;;;;;;;5080615;28;20063;-87
2023/10/26 03:44:00;;;;;;;24.33;7.70;;;;;;;;;;5076691;28;20020;-88
2023/10/26 03:46:31;;;;;;;15.18;5.07;;;;;;;;;;5081083;28;20028;-86
2023/10/26 03:48:57;;;;;;;16.00;4.60;;;;;;;;;;5078184;28;20089;-86
2023/10/26 03:51:22;;;;;;;17.02;4.35;;;;;;;;;;5075877;28;20482;-87
2023/10/26 03:53:48;;;;;;;14.20;3.45;;;;;;;;;;5075022;28;20023;-86
2023/10/26 03:56:15;;;;;;;13.13;3.42;;;;;;;;;;5077749;28;20093;-86
2023/10/26 03:58:40;;;;;;;15.60;3.70;;;;;;;;;;5072388;28;20494;-87
2023/10/26 04:01:06;;;;;;;15.55;4.50;;;;;;;;;;5066590;28;20033;-86
2023/10/26 04:03:31;;;;;;;63.28;24.35;;;;;;;;;;5054029;28;20021;-86
2023/10/26 04:05:56;;;;;;;35.15;13.40;;;;;;;;;;5059581;28;20037;-86
2023/10/26 04:08:22;;;;;;;31.73;11.50;;;;;;;;;;5074560;28;20021;-86
2023/10/26 04:10:48;;;;;;;21.75;7.63;;;;;;;;;;5075965;28;20062;-88
2023/10/26 04:13:13;;;;;;;21.05;6.40;;;;;;;;;;5074799;28;20929;-87
2023/10/26 04:15:38;;;;;;;21.27;7.40;;;;;;;;;;5070513;28;20373;-86
2023/10/26 04:18:05;;;;;;;21.23;7.72;;;;;;;;;;5069259;28;20078;-86
2023/10/26 04:20:30;;;;;;;28.08;7.82;;;;;;;;;;5052644;28;20224;-88
2023/10/26 04:22:56;;;;;;;12.90;4.93;;;;;;;;;;5051202;28;20021;-88
2023/10/26 04:25:21;;;;;;;22.88;6.30;;;;;;;;;;5049394;28;20028;-88
2023/10/26 04:27:47;;;;;;;22.98;8.40;;;;;;;;;;5058245;28;20029;-88
2023/10/26 04:30:12;;;;;;;25.17;10.23;;;;;;;;;;5070654;28;20020;-86
2023/10/26 04:32:38;;;;;;;21.80;6.38;;;;;;;;;;5065123;28;20025;-87
2023/10/26 04:35:04;;;;;;;20.50;6.25;;;;;;;;;;5050347;28;20021;-87
2023/10/26 04:37:29;;;;;;;20.77;6.97;;;;;;;;;;5050651;28;20580;-86
2023/10/26 04:39:56;;;;;;;18.13;8.07;;;;;;;;;;5067248;28;20024;-85
2023/10/26 04:42:22;;;;;;;24.80;8.60;;;;;;;;;;5067785;28;20026;-87
2023/10/26 04:44:47;;;;;;;16.67;7.75;;;;;;;;;;5064188;28;20443;-87
2023/10/26 04:47:12;;;;;;;24.05;9.23;;;;;;;;;;5047439;28;20043;-85
2023/10/26 04:49:38;;;;;;;19.45;8.13;;;;;;;;;;5064353;28;20035;-85
2023/10/26 04:52:03;;;;;;;18.65;7.95;;;;;;;;;;5066961;28;20020;-85
2023/10/26 04:54:28;;;;;;;63.67;24.58;;;;;;;;;;5067989;28;20379;-86
2023/10/26 04:56:54;;;;;;;127.78;44.45;;;;;;;;;;5066539;28;20448;-86
2023/10/26 04:59:19;;;;;;;107.05;39.35;;;;;;;;;;5063234;28;20432;-87
2023/10/26 05:01:46;;;;;;;102.82;40.22;;;;;;;;;;5058321;28;20474;-86
2023/10/26 05:04:11;;;;;;;71.40;26.20;;;;;;;;;;5067180;28;20074;-87
2023/10/26 05:06:36;;;;;;;62.75;24.45;;;;;;;;;;5065279;28;20052;-85
2023/10/26 05:09:03;;;;;;;30.85;9.68;;;;;;;;;;5063283;28;20414;-88
2023/10/26 05:11:29;;;;;;;19.50;7.53;;;;;;;;;;5066958;28;20028;-85
2023/10/26 05:13:54;;;;;;;19.90;7.38;;;;;;;;;;5064513;28;20438;-85
2023/10/26 05:16:19;;;;;;;15.80;7.70;;;;;;;;;;5069628;28;20025;-86
2023/10/26 05:18:45;;;;;;;18.90;6.70;;;;;;;;;;5065859;28;20056;-86
2023/10/26 05:21:10;;;;;;;12.90;6.38;;;;;;;;;;5083073;28;20016;-86
2023/10/26 05:23:37;;;;;;;18.98;7.65;;;;;;;;;;5053990;28;20492;-85
2023/10/26 05:26:03;;;;;;;20.85;8.00;;;;;;;;;;5086918;28;20423;-86
2023/10/26 05:28:29;;;;;;;19.80;8.15;;;;;;;;;;5061825;28;20074;-86
2023/10/26 05:30:54;;;;;;;23.90;9.15;;;;;;;;;;5075741;28;20025;-86
2023/10/26 05:33:19;;;;;;;21.42;9.00;;;;;;;;;;5067885;28;20028;-86
2023/10/26 05:35:45;;;;;;;21.85;10.07;;;;;;;;;;5057393;28;20379;-86
2023/10/26 05:38:10;;;;;;;20.23;9.90;;;;;;;;;;5071152;28;20025;-86
2023/10/26 05:40:36;;;;;;;93.25;33.47;;;;;;;;;;5071177;28;20024;-86
2023/10/26 05:43:01;;;;;;;239.50;87.43;;;;;;;;;;5073978;28;20016;-88
2023/10/26 05:45:26;;;;;;;241.73;83.05;;;;;;;;;;5086245;28;20264;-86
2023/10/26 05:47:52;;;;;;;93.53;35.08;;;;;;;;;;5061922;28;20032;-86
2023/10/26 05:50:18;;;;;;;114.88;43.83;;;;;;;;;;5071011;28;20017;-86
2023/10/26 05:52:43;;;;;;;71.72;31.13;;;;;;;;;;5063247;28;20042;-86
2023/10/26 05:55:09;;;;;;;45.45;19.25;;;;;;;;;;5057511;28;20017;-85
2023/10/26 05:57:34;;;;;;;43.70;20.20;;;;;;;;;;5054911;28;20094;-86
2023/10/26 05:59:59;;;;;;;34.00;15.65;;;;;;;;;;5055489;28;20317;-88
2023/10/26 06:02:25;;;;;;;34.22;16.20;;;;;;;;;;5056731;28;20108;-87
2023/10/26 06:04:50;;;;;;;37.05;15.13;;;;;;;;;;5057144;28;20035;-86
2023/10/26 06:07:15;;;;;;;73.25;26.67;;;;;;;;;;5057945;28;20180;-86
2023/10/26 06:09:41;;;;;;;105.80;38.88;;;;;;;;;;5038240;28;20042;-86
2023/10/26 06:12:07;;;;;;;147.93;54.97;;;;;;;;;;5049979;28;20069;-85
2023/10/26 06:14:32;;;;;;;158.65;62.22;;;;;;;;;;5072831;28;20024;-87
2023/10/26 06:16:57;;;;;;;119.22;46.53;;;;;;;;;;5067376;28;20031;-86
2023/10/26 06:19:23;;;;;;;96.18;41.03;;;;;;;;;;5062356;28;20032;-86
2023/10/26 06:21:48;;;;;;;61.70;25.42;;;;;;;;;;5055146;28;20021;-86
2023/10/26 06:24:13;;;;;;;80.75;30.15;;;;;;;;;;5062945;28;20039;-87
2023/10/26 06:26:39;;;;;;;53.78;23.38;;;;;;;;;;5067194;28;20147;-86
2023/10/26 06:29:04;;;;;;;53.67;22.17;;;;;;;;;;5066635;28;20017;-86
2023/10/26 06:31:29;;;;;;;43.90;19.30;;;;;;;;;;5061061;28;20093;-86
2023/10/26 06:33:55;;;;;;;43.80;16.77;;;;;;;;;;5083401;28;20020;-88
2023/10/26 06:36:20;;;;;;;111.03;35.28;;;;;;;;;;5069449;28;20461;-86
2023/10/26 06:38:45;;;;;;;156.75;71.80;;;;;;;;;;5069115;28;20032;-86
2023/10/26 06:41:11;;;;;;;64.43;24.38;;;;;;;;;;5058680;28;20078;-86
2023/10/26 06:43:37;;;;;;;22.65;7.43;;;;;;;;;;5057716;28;20024;-86
2023/10/26 06:46:02;;;;;;;19.13;4.90;;;;;;;;;;5068563;28;20482;-88
2023/10/26 06:48:28;;;;;;;15.55;4.18;;;;;;;;;;5065502;28;20024;-87
2023/10/26 06:50:58;;;;;;;13.75;4.35;;;;;;;;;;5065227;28;20025;-86
2023/10/26 06:53:24;;;;;;;12.38;4.65;;;;;;;;;;5050772;28;20017;-86
2023/10/26 06:55:52;;;;;;;15.70;5.32;;;;;;;;;;5077026;28;20585;-87
2023/10/26 06:58:17;;;;;;;12.13;4.20;;;;;;;;;;5070426;28;20463;-87
2023/10/26 07:00:42;;;;;;;19.25;6.50;;;;;;;;;;5068218;28;20027;-87
2023/10/26 07:03:07;;;;;;;14.70;5.72;;;;;;;;;;5085732;28;20504;-86
2023/10/26 07:05:33;;;;;;;9.60;4.43;;;;;;;;;;5087266;28;20029;-86
2023/10/26 07:08:01;;;;;;;16.85;4.95;;;;;;;;;;5070703;28;20055;-87
2023/10/26 07:10:26;;;;;;;12.07;4.45;;;;;;;;;;5068925;28;20028;-88
2023/10/26 07:12:52;;;;;;;12.88;4.65;;;;;;;;;;5070654;28;20020;-87
2023/10/26 07:15:17;;;;;;;12.13;4.32;;;;;;;;;;5069967;28;20084;-88
2023/10/26 07:17:43;;;;;;;16.05;4.60;;;;;;;;;;5069020;28;20029;-86
2023/10/26 07:20:09;;;;;;;12.60;3.75;;;;;;;;;;5068714;28;20024;-87
2023/10/26 07:22:35;;;;;;;13.00;4.00;;;;;;;;;;5069735;28;20028;-86
2023/10/26 07:25:01;;;;;;;11.38;3.40;;;;;;;;;;5086325;28;20118;-87
2023/10/26 07:27:27;;;;;;;17.05;3.50;;;;;;;;;;5070107;28;20033;-86
2023/10/26 07:29:52;;;;;;;12.98;3.20;;;;;;;;;;5070571;28;20572;-87
2023/10/26 07:32:17;;;;;;;11.18;3.67;;;;;;;;;;5068445;28;20443;-86
2023/10/26 07:34:43;;;;;;;11.85;3.13;;;;;;;;;;5069370;28;20036;-87
2023/10/26 07:37:08;;;;;;;15.57;3.80;;;;;;;;;;5067015;28;20029;-87
2023/10/26 07:39:34;;;;;;;12.68;3.50;;;;;;;;;;5067514;28;20020;-88
2023/10/26 07:42:00;;;;;;;9.98;3.10;;;;;;;;;;5067548;28;20325;-87
2023/10/26 07:44:30;;;;;;;28.85;6.13;;;;;;;;;;5062583;28;20116;-87
2023/10/26 07:46:56;;;;;;;15.50;3.70;;;;;;;;;;5054702;28;20024;-86
2023/10/26 07:49:21;;;;;;;20.10;5.80;;;;;;;;;;5059215;28;20074;-85
2023/10/26 07:51:46;;;;;;;50.30;19.90;;;;;;;;;;5065360;28;20116;-87
2023/10/26 07:54:12;;;;;;;15.52;7.45;;;;;;;;;;5066537;28;20099;-87
2023/10/26 07:56:38;;;;;;;28.83;10.55;;;;;;;;;;5085449;28;20024;-86
2023/10/26 07:59:03;;;;;;;11.60;3.47;;;;;;;;;;5085003;28;20024;-87
2023/10/26 08:01:28;;;;;;;14.55;4.72;;;;;;;;;;5060996;28;20028;-87
2023/10/26 08:03:54;;;;;;;7.38;2.67;;;;;;;;;;5053129;28;20036;-86
2023/10/26 08:06:19;;;;;;;24.67;11.35;;;;;;;;;;5059401;28;20055;-85
2023/10/26 08:08:44;;;;;;;12.50;4.70;;;;;;;;;;5061144;28;20189;-88
2023/10/26 08:11:10;;;;;;;22.90;9.38;;;;;;;;;;5057258;28;20013;-85
2023/10/26 08:13:37;;;;;;;9.40;2.65;;;;;;;;;;5059585;28;20036;-87
2023/10/26 08:16:02;;;;;;;18.65;5.75;;;;;;;;;;5059118;28;20021;-88
2023/10/26 08:18:28;;;;;;;8.57;2.70;;;;;;;;;;5069838;28;20171;-85
2023/10/26 08:20:53;;;;;;;12.10;3.10;;;;;;;;;;5068233;28;20470;-86
2023/10/26 08:23:19;;;;;;;37.75;13.85;;;;;;;;;;5062967;28;20410;-86
2023/10/26 08:25:44;;;;;;;14.77;4.43;;;;;;;;;;5084192;28;20055;-86
2023/10/26 08:28:10;;;;;;;9.32;3.30;;;;;;;;;;5051661;28;20154;-87
2023/10/26 08:30:37;;;;;;;9.32;2.45;;;;;;;;;;5064470;28;20025;-86
2023/10/26 08:33:04;;;;;;;10.80;4.13;;;;;;;;;;5050868;28;20027;-87
2023/10/26 08:35:29;;;;;;;8.68;2.70;;;;;;;;;;5062922;28;20076;-86
2023/10/26 08:37:55;;;;;;;9.45;2.40;;;;;;;;;;5069938;28;20024;-86
2023/10/26 08:40:20;;;;;;;6.70;2.25;;;;;;;;;;5065913;28;20834;-86
2023/10/26 08:42:46;;;;;;;5.70;2.30;;;;;;;;;;5052824;28;20478;-85
2023/10/26 08:45:19;;;;;;;7.88;2.85;;;;;;;;;;5058355;28;20025;-84
2023/10/26 08:47:46;;;;;;;13.80;3.97;;;;;;;;;;5068771;28;20023;-85
2023/10/26 08:50:12;;;;;;;7.50;2.67;;;;;;;;;;5071720;28;20733;-86
2023/10/26 08:52:37;;;;;;;14.02;3.20;;;;;;;;;;5071506;28;20016;-86
2023/10/26 08:55:03;;;;;;;13.02;2.70;;;;;;;;;;5069307;28;20009;-86
2023/10/26 08:57:28;;;;;;;13.32;2.50;;;;;;;;;;5071682;28;20020;-87
2023/10/26 08:59:53;;;;;;;11.25;3.35;;;;;;;;;;5073028;28;20262;-84
2023/10/26 09:02:19;;;;;;;16.00;3.47;;;;;;;;;;5088261;28;20031;-87
2023/10/26 09:05:03;;;;;;;10.32;2.58;;;;;;;;;;5071218;28;20029;-87
2023/10/26 09:07:29;;;;;;;16.55;5.35;;;;;;;;;;5073327;28;20051;-87
2023/10/26 09:09:55;;;;;;;17.92;4.47;;;;;;;;;;5075707;28;20020;-86
2023/10/26 09:12:20;;;;;;;11.40;3.13;;;;;;;;;;5071583;28;20029;-85
2023/10/26 09:15:06;;;;;;;16.00;5.28;;;;;;;;;;5068156;28;20021;-86
2023/10/26 09:17:31;;;;;;;20.45;10.82;;;;;;;;;;5054850;28;20112;-85
2023/10/26 09:19:59;;;;;;;17.42;7.30;;;;;;;;;;5070579;28;20482;-87
2023/10/26 09:22:35;;;;;;;11.27;5.57;;;;;;;;;;5074924;28;20028;-86
2023/10/26 09:25:07;;;;;;;28.35;14.05;;;;;;;;;;5074931;28;20036;-87
2023/10/26 09:27:34;;;;;;;18.65;7.85;;;;;;;;;;5075591;28;20024;-87
2023/10/26 09:29:59;;;;;;;10.23;2.67;;;;;;;;;;5076268;28;20021;-87
2023/10/26 09:32:30;;;;;;;15.48;4.72;;;;;;;;;;5077956;28;20051;-86
2023/10/26 09:34:55;;;;;;;22.63;6.93;;;;;;;;;;5080566;28;20025;-86
2023/10/26 09:37:21;;;;;;;6.15;2.28;;;;;;;;;;5077623;28;20034;-86
2023/10/26 09:39:48;;;;;;;10.73;3.22;;;;;;;;;;5076263;28;20012;-87
2023/10/26 09:42:14;;;;;;;15.98;3.33;;;;;;;;;;5070202;28;20025;-86
2023/10/26 09:44:39;;;;;;;14.05;3.55;;;;;;;;;;5073633;28;20032;-86
2023/10/26 09:47:06;;;;;;;10.00;2.42;;;;;;;;;;5060624;28;20029;-85
2023/10/26 09:49:31;;;;;;;8.80;2.63;;;;;;;;;;5069815;28;20028;-86
2023/10/26 09:51:58;;;;;;;36.40;16.67;;;;;;;;;;5073052;28;20088;-86
2023/10/26 09:54:38;;;;;;;7.65;2.75;;;;;;;;;;5089995;28;20389;-85
2023/10/26 09:57:17;;;;;;;8.48;2.05;;;;;;;;;;5075541;28;20031;-85
2023/10/26 09:59:42;;;;;;;6.90;2.20;;;;;;;;;;5074509;28;20086;-86
2023/10/26 10:02:17;;;;;;;10.00;3.58;;;;;;;;;;5078751;28;20020;-86
2023/10/26 10:04:44;;;;;;;10.07;2.40;;;;;;;;;;5080797;28;20038;-85
2023/10/26 10:07:15;;;;;;;5.82;2.42;;;;;;;;;;5065239;28;20124;-86
2023/10/26 10:10:03;;;;;;;5.53;2.13;;;;;;;;;;5077555;28;20056;-85
2023/10/26 10:12:28;;;;;;;6.45;1.90;;;;;;;;;;5061745;28;20021;-85
2023/10/26 10:14:54;;;;;;;7.90;2.15;;;;;;;;;;5069845;28;20044;-86
2023/10/26 10:17:43;;;;;;;8.93;2.00;;;;;;;;;;5073563;28;20032;-84
2023/10/26 10:20:10;;;;;;;;;;;;;;;;;;5063330;28;20023;-87
2023/10/26 10:22:36;;;;;;;6.35;2.17;;;;;;;;;;5061334;28;20206;-86
2023/10/26 10:25:02;;;;;;;7.20;2.47;;;;;;;;;;5065404;28;20029;-84
2023/10/26 10:27:27;;;;;;;7.68;2.30;;;;;;;;;;5078164;28;20057;-85
2023/10/26 10:29:56;;;;;;;6.97;2.25;;;;;;;;;;5081163;28;20512;-85
2023/10/26 10:32:42;;;;;;;6.97;1.98;;;;;;;;;;5083485;28;20023;-84
2023/10/26 10:35:10;;;;;;;6.25;2.38;;;;;;;;;;5081419;28;20016;-84
2023/10/26 10:38:04;;;;;;;7.15;2.72;;;;;;;;;;5062929;28;20017;-85
2023/10/26 10:40:34;;;;;;;8.00;1.88;;;;;;;;;;5088544;28;20038;-86
2023/10/26 10:42:59;;;;;;;8.93;2.30;;;;;;;;;;5069692;28;20025;-86
2023/10/26 10:45:28;;;;;;;8.07;2.42;;;;;;;;;;5065590;28;20475;-86
2023/10/26 10:47:53;;;;;;;;;;;;;;;;;;5071881;28;20064;-87
2023/10/26 10:50:20;;;;;;;7.13;2.37;;;;;;;;;;5071264;28;19987;-86
2023/10/26 10:52:58;;;;;;;16.15;3.42;;;;;;;;;;5078672;28;20250;-86
2023/10/26 10:55:23;;;;;;;6.00;2.05;;;;;;;;;;5073972;28;20052;-85
2023/10/26 10:58:02;;;;;;;15.52;2.58;;;;;;;;;;5073271;28;20028;-85
2023/10/26 11:00:31;;;;;;;10.82;2.88;;;;;;;;;;5077203;28;20443;-86
2023/10/26 11:02:59;;;;;;;13.98;2.55;;;;;;;;;;5077916;28;20060;-86
2023/10/26 11:05:37;;;;;;;9.45;2.50;;;;;;;;;;5076010;28;20029;-86
2023/10/26 11:08:07;;;;;;;10.93;3.45;;;;;;;;;;5078588;28;20047;-86
2023/10/26 11:10:33;;;;;;;9.55;3.78;;;;;;;;;;5077539;28;20115;-87
2023/10/26 11:13:01;;;;;;;10.70;2.97;;;;;;;;;;5079679;28;20477;-85
2023/10/26 11:15:32;;;;;;;12.80;4.97;;;;;;;;;;5080270;28;20031;-85
2023/10/26 11:17:58;;;;;;;9.73;2.45;;;;;;;;;;5078749;28;20112;-85
2023/10/26 11:20:39;;;;;;;9.20;2.72;;;;;;;;;;5062891;28;20024;-86
2023/10/26 11:23:05;;;;;;;6.78;2.40;;;;;;;;;;5061285;28;20220;-85
2023/10/26 11:25:31;;;;;;;7.18;2.35;;;;;;;;;;5063939;28;20033;-83
2023/10/26 11:27:56;;;;;;;7.10;2.25;;;;;;;;;;5062634;28;20063;-84
2023/10/26 11:30:21;;;;;;;7.97;2.28;;;;;;;;;;5074921;28;20021;-85
2023/10/26 11:32:47;;;;;;;7.38;2.85;;;;;;;;;;5060853;28;20094;-84
2023/10/26 11:35:16;;;;;;;7.70;2.70;;;;;;;;;;5079378;28;20013;-85
2023/10/26 11:38:03;;;;;;;21.67;7.43;;;;;;;;;;5074068;28;20017;-85
2023/10/26 11:40:31;;;;;;;9.35;3.05;;;;;;;;;;5071716;28;20021;-84
2023/10/26 11:43:00;;;;;;;15.40;4.90;;;;;;;;;;5056796;28;20046;-84
2023/10/26 11:45:26;;;;;;;8.43;2.53;;;;;;;;;;5073670;28;20035;-85
2023/10/26 11:47:54;;;;;;;6.35;2.80;;;;;;;;;;5066627;28;20063;-85
2023/10/26 11:50:22;;;;;;;10.05;3.10;;;;;;;;;;5080433;28;20017;-85
2023/10/26 11:52:48;;;;;;;16.58;5.40;;;;;;;;;;5080872;28;20024;-85
2023/10/26 11:55:17;;;;;;;12.98;2.80;;;;;;;;;;5079426;28;20029;-85
2023/10/26 11:57:43;;;;;;;13.25;4.53;;;;;;;;;;5075150;28;20352;-84
2023/10/26 12:00:09;;;;;;;6.28;2.20;;;;;;;;;;5069859;28;20012;-86
2023/10/26 12:02:35;;;;;;;8.13;2.92;;;;;;;;;;5073645;28;20596;-85
2023/10/26 12:05:00;;;;;;;7.90;2.55;;;;;;;;;;5065757;28;20032;-85
2023/10/26 12:07:25;;;;;;;10.13;2.85;;;;;;;;;;5061581;28;20056;-84
2023/10/26 12:09:51;;;;;;;15.93;4.70;;;;;;;;;;5075687;28;20116;-83
2023/10/26 12:12:16;;;;;;;15.50;5.57;;;;;;;;;;5079301;28;20096;-83
2023/10/26 12:14:43;;;;;;;4.47;2.33;;;;;;;;;;5079599;28;20013;-86
2023/10/26 12:17:09;;;;;;;9.52;2.70;;;;;;;;;;5066562;28;20486;-84
2023/10/26 12:19:34;;;;;;;12.98;4.45;;;;;;;;;;5068854;28;20028;-84
2023/10/26 12:22:00;;;;;;;15.38;3.35;;;;;;;;;;5084479;28;20054;-85
2023/10/26 12:24:25;;;;;;;10.13;2.53;;;;;;;;;;5068129;28;20035;-85
2023/10/26 12:27:00;;;;;;;7.90;2.15;;;;;;;;;;5068837;28;20027;-85
2023/10/26 12:29:25;;;;;;;8.55;2.78;;;;;;;;;;5069445;28;20036;-85
2023/10/26 12:31:50;;;;;;;11.55;2.83;;;;;;;;;;5057687;28;20069;-86
2023/10/26 12:34:16;;;;;;;11.55;4.55;;;;;;;;;;5067424;28;20554;-85
2023/10/26 12:36:42;;;;;;;8.05;2.60;;;;;;;;;;5067134;28;20036;-86
2023/10/26 12:39:07;;;;;;;9.27;3.65;;;;;;;;;;5074171;28;20025;-86
2023/10/26 12:41:33;;;;;;;9.38;2.40;;;;;;;;;;5073969;28;20404;-85
2023/10/26 12:43:58;;;;;;;7.47;2.90;;;;;;;;;;5074153;28;20025;-85
2023/10/26 12:46:23;;;;;;;8.60;4.22;;;;;;;;;;5072051;28;20028;-85
2023/10/26 12:48:49;;;;;;;4.20;1.83;;;;;;;;;;5072993;28;20024;-85
2023/10/26 12:51:14;;;;;;;13.23;5.78;;;;;;;;;;5074336;28;20027;-86
2023/10/26 12:53:40;;;;;;;8.60;2.70;;;;;;;;;;5067631;28;20055;-86
2023/10/26 12:56:08;;;;;;;6.30;2.85;;;;;;;;;;5068300;28;20299;-85
2023/10/26 12:58:33;;;;;;;;;;;;;;;;;;5070758;28;20021;-86
2023/10/26 13:00:59;;;;;;;7.23;2.13;;;;;;;;;;5064402;28;19905;-85
2023/10/26 13:03:24;;;;;;;7.55;2.15;;;;;;;;;;5057719;28;20025;-84
2023/10/26 13:05:49;;;;;;;5.80;2.25;;;;;;;;;;5065185;28;20058;-85
2023/10/26 13:08:15;;;;;;;5.13;1.95;;;;;;;;;;5070154;28;20080;-85
2023/10/26 13:10:42;;;;;;;7.85;1.98;;;;;;;;;;5070914;28;20021;-85
2023/10/26 13:13:08;;;;;;;6.43;2.40;;;;;;;;;;5106342;28;20016;-84
2023/10/26 13:15:33;;;;;;;7.55;2.10;;;;;;;;;;5083172;28;20075;-85
2023/10/26 13:17:58;;;;;;;5.63;1.73;;;;;;;;;;5091687;28;20500;-84
2023/10/26 13:20:25;;;;;;;5.63;1.77;;;;;;;;;;5084346;28;20123;-83
2023/10/26 13:22:51;;;;;;;3.75;1.90;;;;;;;;;;5085098;28;20024;-83
2023/10/26 13:25:16;;;;;;;6.60;2.10;;;;;;;;;;5078805;28;20031;-83
2023/10/26 13:27:42;;;;;;;5.10;2.13;;;;;;;;;;5075392;28;20029;-84
2023/10/26 13:30:07;;;;;;;4.75;2.17;;;;;;;;;;5072044;28;20001;-85
2023/10/26 13:32:34;;;;;;;5.28;2.00;;;;;;;;;;5075275;28;20025;-86
2023/10/26 13:34:59;;;;;;;11.18;5.35;;;;;;;;;;5085537;28;20021;-84
2023/10/26 13:37:25;;;;;;;17.05;7.03;;;;;;;;;;5086271;28;20622;-85
2023/10/26 13:39:50;;;;;;;27.50;10.15;;;;;;;;;;5090205;28;20020;-85
2023/10/26 13:42:15;;;;;;;8.25;3.03;;;;;;;;;;5085497;28;20666;-84
2023/10/26 13:44:42;;;;;;;2.83;1.38;;;;;;;;;;5083136;28;20036;-84
2023/10/26 13:47:08;;;;;;;5.43;1.60;;;;;;;;;;5063533;28;20013;-85
2023/10/26 13:49:33;;;;;;;5.55;1.45;;;;;;;;;;5064266;28;20025;-85
2023/10/26 13:51:58;;;;;;;3.60;1.25;;;;;;;;;;5075710;28;20027;-84
2023/10/26 13:54:24;;;;;;;5.30;1.75;;;;;;;;;;5084422;28;20028;-84
2023/10/26 13:56:58;;;;;;;3.10;1.45;;;;;;;;;;5083919;28;20024;-84
2023/10/26 13:59:25;;;;;;;6.28;2.45;;;;;;;;;;5084508;28;20299;-85
2023/10/26 14:01:50;;;;;;;13.07;5.80;;;;;;;;;;5061654;28;20055;-85
2023/10/26 14:04:16;;;;;;;6.00;2.70;;;;;;;;;;5066730;28;20035;-85
2023/10/26 14:06:46;;;;;;;4.70;1.70;;;;;;;;;;5083460;28;20040;-84
2023/10/26 14:09:14;;;;;;;5.60;2.50;;;;;;;;;;5068362;28;20533;-84
2023/10/26 14:11:43;;;;;;;5.03;2.03;;;;;;;;;;5082309;28;20533;-85
2023/10/26 14:14:09;;;;;;;8.50;2.60;;;;;;;;;;5087366;28;20051;-85
2023/10/26 14:16:34;;;;;;;7.07;1.88;;;;;;;;;;5082425;28;20021;-84
2023/10/26 14:19:03;;;;;;;6.65;2.33;;;;;;;;;;5089540;28;20076;-85
2023/10/26 14:21:29;;;;;;;4.95;1.92;;;;;;;;;;5082901;28;20017;-84
2023/10/26 14:23:54;;;;;;;7.50;2.40;;;;;;;;;;5075510;28;20446;-84
2023/10/26 14:26:20;;;;;;;7.68;2.13;;;;;;;;;;5084478;28;20067;-84